createdAt,value
2023-09-14T00:00:47.913Z,101651.75
2023-09-14T00:05:52.028Z,101667.41
2023-09-14T00:10:56.520Z,101649.13
2023-09-14T00:15:59.935Z,101669.03
2023-09-14T00:21:04.189Z,101641.97
2023-09-14T00:26:07.372Z,101667.13
2023-09-14T00:31:10.505Z,101643.72
2023-09-14T00:36:13.771Z,101679.41
2023-09-14T00:41:16.744Z,101684.78
2023-09-14T00:46:19.887Z,101685.06
2023-09-14T00:51:23.215Z,101692.19
2023-09-14T00:56:29.608Z,101674.22
2023-09-14T01:01:36.426Z,101701.41
2023-09-14T01:06:39.609Z,101665.91
2023-09-14T01:11:42.846Z,101674.72
2023-09-14T01:16:55.033Z,101673.19
2023-09-14T01:22:21.828Z,101673.84
2023-09-14T01:27:25.493Z,101703.09
2023-09-14T01:32:29.289Z,101701.88
2023-09-14T01:37:33.780Z,101685.81
2023-09-14T01:42:38.454Z,101684.75
2023-09-14T01:47:41.588Z,101622.94
2023-09-14T01:52:44.731Z,101678.41
2023-09-14T01:57:48.206Z,101673.94
2023-09-14T02:02:53.039Z,101673.59
2023-09-14T02:07:56.171Z,101673.63
2023-09-14T02:12:59.354Z,101625.81
2023-09-14T02:18:02.484Z,101670.22
2023-09-14T02:23:05.685Z,101691.88
2023-09-14T02:28:08.766Z,101695.16
2023-09-14T02:33:12.000Z,101665.56
2023-09-14T02:38:15.139Z,101706.56
2023-09-14T02:43:19.430Z,101703.81
2023-09-14T02:48:23.091Z,101696.72
2023-09-14T02:53:26.081Z,101681.13
2023-09-14T02:58:29.107Z,101672.31
2023-09-14T03:03:33.730Z,101688.84
2023-09-14T03:08:37.289Z,101678.75
2023-09-14T03:13:41.096Z,101696.59
2023-09-14T03:18:45.209Z,101702.94
2023-09-14T03:23:48.568Z,101713.69
2023-09-14T03:28:52.157Z,101717.28
2023-09-14T03:33:55.609Z,101698.31
2023-09-14T03:38:58.976Z,101729.91
2023-09-14T03:44:07.584Z,101728.28
2023-09-14T03:49:10.862Z,101718.34
2023-09-14T03:54:14.908Z,101725.97
2023-09-14T03:59:18.561Z,101722.22
2023-09-14T04:04:21.755Z,101685.41
2023-09-14T04:09:24.996Z,101720.59
2023-09-14T04:14:28.643Z,101719.47
2023-09-14T04:19:32.190Z,101723.47
2023-09-14T04:24:35.471Z,101729.41
2023-09-14T04:29:38.545Z,101710.88
2023-09-14T04:34:41.634Z,101700.50
2023-09-14T04:39:47.024Z,101741.66
2023-09-14T04:44:52.525Z,101727.84
2023-09-14T04:49:55.808Z,101728.81
2023-09-14T04:54:58.974Z,101708.06
2023-09-14T05:00:02.636Z,101701.13
2023-09-14T05:05:07.710Z,101739.94
2023-09-14T05:10:12.284Z,101706.50
2023-09-14T05:15:16.046Z,101742.28
2023-09-14T05:20:19.648Z,101733.38
2023-09-14T05:25:22.894Z,101748.50
2023-09-14T05:30:26.561Z,101730.13
2023-09-14T05:35:30.663Z,101739.31
2023-09-14T05:40:36.980Z,101744.97
2023-09-14T05:45:43.516Z,101736.59
2023-09-14T05:50:46.879Z,101747.00
2023-09-14T05:55:55.258Z,101732.06
2023-09-14T06:00:58.634Z,101757.69
2023-09-14T06:06:02.403Z,101747.44
2023-09-14T06:11:05.699Z,101732.41
2023-09-14T06:16:10.310Z,101774.75
2023-09-14T06:21:14.165Z,101741.72
2023-09-14T06:26:17.326Z,101770.38
2023-09-14T06:31:20.811Z,101751.19
2023-09-14T06:36:25.076Z,101776.88
2023-09-14T06:41:29.311Z,101779.69
2023-09-14T06:46:40.280Z,101725.78
2023-09-14T06:51:43.560Z,101723.13
2023-09-14T06:56:46.787Z,101734.75
2023-09-14T07:01:50.024Z,101742.16
2023-09-14T07:06:53.307Z,101710.66
2023-09-14T07:11:56.546Z,101639.81
2023-09-14T07:16:59.854Z,101689.25
2023-09-14T07:22:03.107Z,101713.00
2023-09-14T07:27:06.370Z,101665.28
2023-09-14T07:32:09.600Z,101699.41
2023-09-14T07:37:13.405Z,101705.97
2023-09-14T07:42:16.554Z,101724.03
2023-09-14T07:47:19.937Z,101703.59
2023-09-14T07:52:26.347Z,101727.88
2023-09-14T07:57:30.732Z,101727.84
2023-09-14T08:02:34.774Z,101686.53
2023-09-14T08:07:38.019Z,101723.16
2023-09-14T08:12:41.150Z,101727.19
2023-09-14T08:17:46.090Z,101672.84
2023-09-14T08:22:49.720Z,101688.84
2023-09-14T08:27:52.963Z,101689.66
2023-09-14T08:32:56.208Z,101693.47
2023-09-14T08:37:59.488Z,101687.91
2023-09-14T08:43:03.978Z,101666.59
2023-09-14T08:48:07.701Z,101672.97
2023-09-14T08:53:14.802Z,101671.19
2023-09-14T08:58:19.826Z,101642.38
2023-09-14T09:03:22.992Z,101674.19
2023-09-14T09:08:27.898Z,101654.75
2023-09-14T09:13:42.171Z,101660.47
2023-09-14T09:19:14.664Z,101666.16
2023-09-14T09:24:27.783Z,101655.97
2023-09-14T09:29:31.164Z,101655.88
2023-09-14T09:34:36.063Z,101631.59
2023-09-14T09:39:39.325Z,101645.56
2023-09-14T09:44:42.638Z,101640.16
2023-09-14T09:49:46.296Z,101605.56
2023-09-14T09:54:51.487Z,101615.66
2023-09-14T09:59:57.192Z,101611.06
2023-09-14T10:05:00.598Z,101631.13
2023-09-14T10:10:04.120Z,101611.00
2023-09-14T10:15:09.447Z,101609.47
2023-09-14T10:20:13.121Z,101611.03
2023-09-14T10:25:17.925Z,101616.31
2023-09-14T10:30:22.696Z,101642.66
2023-09-14T10:35:25.974Z,101629.69
2023-09-14T10:40:31.233Z,101634.09
2023-09-14T10:45:39.569Z,101621.25
2023-09-14T10:50:43.159Z,101602.28
2023-09-14T10:55:46.387Z,101614.19
2023-09-14T11:01:04.818Z,101588.50
2023-09-14T11:06:44.719Z,101603.06
2023-09-14T11:11:53.886Z,101589.13
2023-09-14T11:17:02.565Z,101598.19
2023-09-14T11:22:15.184Z,101588.03
2023-09-14T11:27:25.171Z,101633.06
2023-09-14T11:32:31.391Z,101649.41
2023-09-14T11:37:40.607Z,101613.44
2023-09-14T11:53:25.273Z,101636.13
2023-09-14T11:58:28.563Z,101673.44
2023-09-14T12:03:32.101Z,101659.16
2023-09-14T12:08:35.673Z,101702.94
2023-09-14T12:13:38.906Z,101667.75
2023-09-14T12:18:43.392Z,101661.00
2023-09-14T12:23:52.510Z,101644.75
2023-09-14T12:28:58.906Z,101678.06
2023-09-14T12:34:02.493Z,101669.75
2023-09-14T12:39:13.871Z,101613.03
2023-09-14T12:44:18.442Z,101626.88
2023-09-14T12:49:23.096Z,101643.41
2023-09-14T12:54:27.363Z,101654.94
2023-09-14T12:59:30.564Z,101602.03
2023-09-14T13:04:37.223Z,101640.34
2023-09-14T13:09:40.405Z,101644.78
2023-09-14T13:14:45.589Z,101635.16
2023-09-14T13:19:48.715Z,101633.53
2023-09-14T13:24:51.932Z,101635.84
2023-09-14T13:29:55.452Z,101611.69
2023-09-14T13:34:58.802Z,101659.63
2023-09-14T13:40:07.324Z,101583.97
2023-09-14T13:45:10.918Z,101654.88
2023-09-14T13:50:14.375Z,101660.19
2023-09-14T13:55:17.906Z,101658.69
2023-09-14T14:00:22.755Z,101601.06
2023-09-14T14:05:25.994Z,101662.91
2023-09-14T14:10:29.227Z,101659.72
2023-09-14T14:15:32.728Z,101656.22
2023-09-14T14:20:37.262Z,101642.06
2023-09-14T14:25:40.588Z,101651.91
2023-09-14T14:30:43.990Z,101656.72
2023-09-14T14:35:47.117Z,101634.28
2023-09-14T14:41:17.642Z,101632.84
2023-09-14T14:46:13.343Z,101585.81
2023-09-14T14:51:16.521Z,101616.09
2023-09-14T14:56:19.600Z,101584.25
2023-09-14T15:01:22.796Z,101585.91
2023-09-14T15:06:28.056Z,101578.00
2023-09-14T15:11:31.248Z,101572.09
2023-09-14T15:16:34.578Z,101571.72
2023-09-14T15:21:37.796Z,101589.94
2023-09-14T15:26:41.923Z,101589.41
2023-09-14T15:31:45.120Z,101576.91
2023-09-14T15:36:48.508Z,101578.28
2023-09-14T15:41:51.889Z,101587.81
2023-09-14T15:46:55.108Z,101600.38
2023-09-14T15:51:59.930Z,101622.75
2023-09-14T15:57:05.182Z,101604.94
2023-09-14T16:02:08.324Z,101631.72
2023-09-14T16:07:11.429Z,101633.41
2023-09-14T16:12:14.505Z,101623.19
2023-09-14T16:17:17.660Z,101645.41
2023-09-14T16:22:21.790Z,101639.94
2023-09-14T16:27:24.856Z,101654.38
2023-09-14T16:32:27.985Z,101662.38
2023-09-14T16:37:31.212Z,101638.09
2023-09-14T16:42:34.303Z,101645.97
2023-09-14T16:47:37.384Z,101628.81
2023-09-14T16:52:40.646Z,101662.78
2023-09-14T16:57:44.026Z,101657.47
2023-09-14T17:02:47.203Z,101655.56
2023-09-14T17:07:50.446Z,101628.56
2023-09-14T17:12:53.557Z,101667.81
2023-09-14T17:17:56.731Z,101661.63
2023-09-14T17:22:59.910Z,101663.78
2023-09-14T17:28:03.012Z,101678.19
2023-09-14T17:33:06.347Z,101687.75
2023-09-14T17:38:09.778Z,101671.41
2023-09-14T17:43:12.913Z,101701.88
2023-09-14T17:48:16.199Z,101713.41
2023-09-14T17:53:19.515Z,101708.75
2023-09-14T17:58:23.108Z,101696.94
2023-09-14T18:03:26.699Z,101698.44
2023-09-14T18:08:29.873Z,101665.91
2023-09-14T18:13:32.972Z,101695.25
2023-09-14T18:18:36.087Z,101688.78
2023-09-14T18:23:39.345Z,101687.59
2023-09-14T18:28:42.486Z,101657.84
2023-09-14T18:33:46.059Z,101670.47
2023-09-14T18:38:49.571Z,101667.75
2023-09-14T18:43:52.791Z,101637.28
2023-09-14T18:48:55.951Z,101668.59
2023-09-14T18:54:00.499Z,101650.91
2023-09-14T18:59:31.422Z,101662.34
2023-09-14T19:04:26.974Z,101643.84
2023-09-14T19:09:30.187Z,101638.59
2023-09-14T19:14:33.344Z,101689.31
2023-09-14T19:19:36.386Z,101679.75
2023-09-14T19:24:40.284Z,101674.97
2023-09-14T19:29:43.487Z,101665.28
2023-09-14T19:34:46.580Z,101613.72
2023-09-14T19:39:49.765Z,101621.59
2023-09-14T19:44:53.564Z,101627.28
2023-09-14T19:49:57.333Z,101624.44
2023-09-14T19:55:02.480Z,101547.09
2023-09-14T20:00:07.479Z,101596.59
2023-09-14T20:05:13.528Z,101604.56
2023-09-14T20:10:16.727Z,101596.34
2023-09-14T20:15:19.969Z,101606.38
2023-09-14T20:20:23.187Z,101546.41
2023-09-14T20:25:28.217Z,101601.28
2023-09-14T20:30:31.430Z,101616.81
2023-09-14T20:35:37.587Z,101628.34
2023-09-14T20:40:40.807Z,101633.97
2023-09-14T20:45:44.397Z,101642.19
2023-09-14T20:50:47.605Z,101659.75
2023-09-14T20:55:51.415Z,101656.06
2023-09-14T21:00:54.728Z,101637.81
2023-09-14T21:06:04.971Z,101661.88
2023-09-14T21:11:08.056Z,101668.53
2023-09-14T21:16:11.427Z,101686.88
2023-09-14T21:21:14.621Z,101689.31
2023-09-14T21:26:17.816Z,101670.25
2023-09-14T21:31:21.028Z,101700.09
2023-09-14T21:36:24.117Z,101684.78
2023-09-14T21:41:27.256Z,101693.84
2023-09-14T21:46:30.791Z,101709.94
2023-09-14T21:51:33.885Z,101692.19
2023-09-14T21:56:36.955Z,101706.44
2023-09-14T22:01:40.191Z,101718.06
2023-09-14T22:06:43.738Z,101709.59
2023-09-14T22:11:46.916Z,101716.03
2023-09-14T22:16:51.696Z,101703.91
2023-09-14T22:21:56.700Z,101704.22
2023-09-14T22:27:00.040Z,101694.00
2023-09-14T22:32:04.327Z,101707.44
2023-09-14T22:37:07.519Z,101706.84
2023-09-14T22:42:11.264Z,101657.50
2023-09-14T22:47:14.585Z,101661.78
2023-09-14T22:52:17.726Z,101709.81
2023-09-14T22:57:21.371Z,101687.38
2023-09-14T23:02:24.493Z,101697.09
2023-09-14T23:07:27.538Z,101697.88
2023-09-14T23:12:30.655Z,101696.72
2023-09-14T23:17:33.851Z,101725.25
2023-09-14T23:22:37.016Z,101735.13
2023-09-14T23:27:40.327Z,101709.38
2023-09-14T23:32:43.388Z,101689.31
2023-09-14T23:37:47.322Z,101713.50
2023-09-14T23:42:50.453Z,101703.06
2023-09-14T23:47:53.629Z,101702.19
2023-09-14T23:52:57.707Z,101702.25
2023-09-14T23:58:00.912Z,101699.81
